TimePST,TemperatureF,Dew PointF,Humidity,Sea Level PressureIn,VisibilityMPH,Wind Direction,Wind SpeedMPH,Gust SpeedMPH,PrecipitationIn,Events,Conditions,WindDirDegrees,DateUTC
12:58 AM,30.9,-0.6,26,30.36,10.0,South,2.3,-,N/A,,Clear,180,2013-02-28 08:58:00
1:58 AM,28.6,-1.5,27,30.37,10.0,SW,1.2,-,N/A,,Clear,220,2013-02-28 09:58:00
2:58 AM,28.0,2.8,34,30.36,10.0,SW,1.2,-,N/A,,Clear,230,2013-02-28 10:58:00
3:58 AM,26.4,3.7,38,30.36,10.0,West,3.5,-,N/A,,Clear,270,2013-02-28 11:58:00
4:58 AM,28.6,6.3,39,30.38,10.0,West,3.5,-,N/A,,Clear,260,2013-02-28 12:58:00
5:58 AM,23.5,0.9,37,30.40,90.0,SSE,2.3,-,N/A,,Clear,150,2013-02-28 13:58:00
6:58 AM,25.3,-2.6,30,30.42,90.0,NW,1.2,-,N/A,,Partly Cloudy,320,2013-02-28 14:58:00
7:58 AM,33.1,6.3,32,30.44,90.0,WSW,2.3,-,N/A,,Clear,250,2013-02-28 15:58:00
8:58 AM,37.2,4.6,26,30.45,90.0,East,2.3,-,N/A,,Clear,90,2013-02-28 16:58:00
9:58 AM,46.4,9.9,23,30.44,90.0,Calm,Calm,-,N/A,,Clear,0,2013-02-28 17:58:00
10:58 AM,53.1,5.9,15,30.43,90.0,Variable,1.2,-,N/A,,Clear,0,2013-02-28 18:58:00
11:58 AM,58.1,1.9,10,30.40,90.0,Variable,2.3,-,N/A,,Clear,0,2013-02-28 19:58:00
12:58 PM,62.6,3.0,9,30.37,90.0,Variable,4.6,-,N/A,,Clear,0,2013-02-28 20:58:00
1:58 PM,65.1,2.5,8,30.35,90.0,NNE,5.8,-,N/A,,Clear,30,2013-02-28 21:58:00
2:58 PM,66.6,3.7,8,30.34,90.0,NNE,3.5,-,N/A,,Clear,30,2013-02-28 22:58:00
3:58 PM,67.1,4.1,8,30.33,90.0,ENE,3.5,-,N/A,,Clear,70,2013-02-28 23:58:00
4:58 PM,66.9,6.4,9,30.33,90.0,East,4.6,-,N/A,,Partly Cloudy,90,2013-03-01 00:58:00
5:58 PM,63.1,7.2,11,30.35,90.0,NNE,2.3,-,N/A,,Partly Cloudy,20,2013-03-01 01:58:00
6:58 PM,58.3,6.3,13,30.38,80.0,West,2.3,-,N/A,,Partly Cloudy,260,2013-03-01 02:58:00
7:58 PM,50.0,5.0,16,30.39,60.0,South,3.5,-,N/A,,Partly Cloudy,170,2013-03-01 03:58:00
8:58 PM,47.1,4.8,18,30.39,60.0,Variable,2.3,-,N/A,,Clear,0,2013-03-01 04:58:00
9:58 PM,47.8,18.0,31,30.40,50.0,WNW,8.1,-,N/A,,Clear,290,2013-03-01 05:58:00
10:58 PM,40.8,7.9,26,30.41,10.0,South,4.6,-,N/A,,Clear,190,2013-03-01 06:58:00
11:58 PM,37.9,7.0,28,30.41,10.0,South,3.5,-,N/A,,Clear,170,2013-03-01 07:58:00